CCM29H LFML-LFKJ
Flight info
| Callsign | CCM29H |
|---|---|
| Flight time | 0h 37m |
| Altitude | 23000 |
| Route | TINOT Z154 RUBAS |
| Aircraft | A320/M-SDE3FGHIRWY/LB1 |
Departure
| Time | 2026-04-28 20:26 |
|---|---|
| Airport | Marseille Provence Airport (LFML) |
Arrival
| Time | 2026-04-28 21:03 |
|---|---|
| Airport | Ajaccio Napoléon Bonaparte airport (LFKJ) |
| Time | Latitude | Longitude | Altitude | Speed | Heading |
|---|---|---|---|---|---|
| 2026-04-28 19:57 | 43.43817 | 5.22470 | 38 ft | 0 kts | 332° |
| 2026-04-28 20:17 | 43.43815 | 5.22472 | 10 ft | 3 kts | 330° |
| 2026-04-28 20:17 | 43.43798 | 5.22493 | 36 ft | 4 kts | 277° |
| 2026-04-28 20:17 | 43.43804 | 5.22524 | 35 ft | 4 kts | 230° |
| 2026-04-28 20:18 | 43.43823 | 5.22548 | 37 ft | 3 kts | 210° |
| 2026-04-28 20:18 | 43.43826 | 5.22550 | 37 ft | 1 kts | 209° |
| 2026-04-28 20:20 | 43.43825 | 5.22550 | 38 ft | 0 kts | 209° |
| 2026-04-28 20:20 | 43.43800 | 5.22531 | 35 ft | 7 kts | 209° |
| 2026-04-28 20:21 | 43.43763 | 5.22465 | 38 ft | 11 kts | 251° |
| 2026-04-28 20:21 | 43.43737 | 5.22349 | 37 ft | 15 kts | 253° |
| 2026-04-28 20:21 | 43.43736 | 5.22207 | 37 ft | 16 kts | 241° |
| 2026-04-28 20:21 | 43.43691 | 5.22083 | 37 ft | 15 kts | 307° |
| 2026-04-28 20:22 | 43.43780 | 5.21989 | 37 ft | 16 kts | 316° |
| 2026-04-28 20:22 | 43.43856 | 5.21881 | 37 ft | 15 kts | 314° |
| 2026-04-28 20:22 | 43.43905 | 5.21811 | 37 ft | 9 kts | 314° |
| 2026-04-28 20:22 | 43.43947 | 5.21751 | 37 ft | 8 kts | 314° |
| 2026-04-28 20:23 | 43.43984 | 5.21695 | 38 ft | 10 kts | 303° |
| 2026-04-28 20:23 | 43.43938 | 5.21580 | 38 ft | 21 kts | 229° |
| 2026-04-28 20:23 | 43.43960 | 5.21437 | 37 ft | 20 kts | 311° |
| 2026-04-28 20:23 | 43.44078 | 5.21264 | 37 ft | 26 kts | 313° |
| 2026-04-28 20:24 | 43.44187 | 5.21110 | 37 ft | 22 kts | 314° |
| 2026-04-28 20:24 | 43.44287 | 5.20944 | 37 ft | 23 kts | 296° |
| 2026-04-28 20:24 | 43.44291 | 5.20788 | 37 ft | 17 kts | 225° |
| 2026-04-28 20:24 | 43.44210 | 5.20652 | 33 ft | 20 kts | 248° |
| 2026-04-28 20:25 | 43.44146 | 5.20484 | 36 ft | 20 kts | 242° |
| 2026-04-28 20:25 | 43.44046 | 5.20424 | 33 ft | 10 kts | 125° |
| 2026-04-28 20:25 | 43.43996 | 5.20489 | 33 ft | 9 kts | 134° |
| 2026-04-28 20:25 | 43.43914 | 5.20603 | 32 ft | 45 kts | 134° |
| 2026-04-28 20:26 | 43.43503 | 5.21176 | 34 ft | 119 kts | 136° |
| 2026-04-28 20:26 | 43.42777 | 5.22173 | 36 ft | 174 kts | 135° |
| 2026-04-28 20:26 | 43.41928 | 5.23335 | 799 ft | 164 kts | 135° |
| 2026-04-28 20:26 | 43.41099 | 5.24377 | 1614 ft | 165 kts | 150° |
| 2026-04-28 20:27 | 43.40088 | 5.25232 | 2182 ft | 175 kts | 147° |
| 2026-04-28 20:27 | 43.39000 | 5.26146 | 2620 ft | 192 kts | 147° |
| 2026-04-28 20:27 | 43.37807 | 5.27151 | 3024 ft | 212 kts | 147° |
| 2026-04-28 20:27 | 43.36516 | 5.28247 | 3583 ft | 229 kts | 147° |
| 2026-04-28 20:28 | 43.35107 | 5.29446 | 4192 ft | 247 kts | 147° |
| 2026-04-28 20:28 | 43.33605 | 5.30730 | 4882 ft | 260 kts | 147° |
| 2026-04-28 20:28 | 43.32057 | 5.32061 | 5741 ft | 265 kts | 150° |
| 2026-04-28 20:28 | 43.30301 | 5.32820 | 6647 ft | 269 kts | 174° |
| 2026-04-28 20:29 | 43.28414 | 5.32902 | 7475 ft | 274 kts | 178° |
| 2026-04-28 20:29 | 43.26489 | 5.32946 | 8327 ft | 278 kts | 178° |
| 2026-04-28 20:29 | 43.24547 | 5.32983 | 9188 ft | 281 kts | 179° |
| 2026-04-28 20:29 | 43.22579 | 5.33021 | 10048 ft | 285 kts | 179° |
| 2026-04-28 20:30 | 43.20553 | 5.33059 | 10595 ft | 299 kts | 179° |
| 2026-04-28 20:30 | 43.18413 | 5.33104 | 11016 ft | 316 kts | 179° |
| 2026-04-28 20:30 | 43.16149 | 5.33153 | 11408 ft | 333 kts | 180° |
| 2026-04-28 20:30 | 43.13776 | 5.33207 | 11765 ft | 350 kts | 180° |
| 2026-04-28 20:31 | 43.11308 | 5.33386 | 12302 ft | 359 kts | 171° |
| 2026-04-28 20:31 | 43.08938 | 5.34518 | 13018 ft | 365 kts | 151° |
| 2026-04-28 20:31 | 43.06989 | 5.36667 | 13717 ft | 371 kts | 132° |
| 2026-04-28 20:31 | 43.05373 | 5.39463 | 14316 ft | 377 kts | 129° |
| 2026-04-28 20:32 | 43.03767 | 5.42327 | 14912 ft | 381 kts | 129° |
| 2026-04-28 20:32 | 43.02149 | 5.45219 | 15510 ft | 385 kts | 129° |
| 2026-04-28 20:32 | 43.00512 | 5.48134 | 16109 ft | 389 kts | 129° |
| 2026-04-28 20:32 | 42.98850 | 5.51081 | 16702 ft | 393 kts | 129° |
| 2026-04-28 20:33 | 42.97420 | 5.54292 | 17287 ft | 399 kts | 119° |
| 2026-04-28 20:33 | 42.96123 | 5.57670 | 17864 ft | 404 kts | 119° |
| 2026-04-28 20:33 | 42.94816 | 5.61087 | 18429 ft | 408 kts | 119° |
| 2026-04-28 20:33 | 42.93543 | 5.64568 | 18939 ft | 412 kts | 117° |
| 2026-04-28 20:34 | 42.92363 | 5.68155 | 19480 ft | 416 kts | 115° |
| 2026-04-28 20:34 | 42.91243 | 5.71822 | 19986 ft | 420 kts | 114° |
| 2026-04-28 20:34 | 42.90147 | 5.75523 | 20484 ft | 423 kts | 114° |
| 2026-04-28 20:34 | 42.89040 | 5.79262 | 20971 ft | 426 kts | 114° |
| 2026-04-28 20:35 | 42.87914 | 5.83012 | 21452 ft | 429 kts | 114° |
| 2026-04-28 20:35 | 42.86758 | 5.86782 | 21917 ft | 432 kts | 115° |
| 2026-04-28 20:35 | 42.85578 | 5.90565 | 22367 ft | 435 kts | 115° |
| 2026-04-28 20:35 | 42.84379 | 5.94370 | 22813 ft | 438 kts | 115° |
| 2026-04-28 20:36 | 42.83167 | 5.98198 | 23017 ft | 441 kts | 115° |
| 2026-04-28 20:36 | 42.81934 | 6.02080 | 23041 ft | 453 kts | 115° |
| 2026-04-28 20:36 | 42.80669 | 6.06054 | 23035 ft | 461 kts | 115° |
| 2026-04-28 20:36 | 42.79420 | 6.09992 | 23033 ft | 461 kts | 115° |
| 2026-04-28 20:37 | 42.78150 | 6.14017 | 23030 ft | 461 kts | 115° |
| 2026-04-28 20:37 | 42.76886 | 6.18031 | 23030 ft | 461 kts | 115° |
| 2026-04-28 20:37 | 42.75620 | 6.22048 | 23028 ft | 461 kts | 115° |
| 2026-04-28 20:37 | 42.74352 | 6.26052 | 23031 ft | 461 kts | 115° |
| 2026-04-28 20:38 | 42.73082 | 6.30057 | 23032 ft | 461 kts | 115° |
| 2026-04-28 20:38 | 42.71812 | 6.34058 | 23034 ft | 461 kts | 115° |
| 2026-04-28 20:38 | 42.70541 | 6.38051 | 23032 ft | 461 kts | 115° |
| 2026-04-28 20:38 | 42.69697 | 6.40695 | 23029 ft | 460 kts | 115° |
| 2026-04-28 20:39 | 42.67988 | 6.46040 | 23029 ft | 460 kts | 115° |
| 2026-04-28 20:39 | 42.67143 | 6.48679 | 23030 ft | 460 kts | 115° |
| 2026-04-28 20:39 | 42.65867 | 6.52668 | 23024 ft | 460 kts | 116° |
| 2026-04-28 20:39 | 42.64589 | 6.56655 | 23022 ft | 460 kts | 116° |
| 2026-04-28 20:40 | 42.63311 | 6.60633 | 23029 ft | 460 kts | 116° |
| 2026-04-28 20:40 | 42.62032 | 6.64612 | 23028 ft | 460 kts | 116° |
| 2026-04-28 20:40 | 42.60751 | 6.68586 | 23027 ft | 460 kts | 116° |
| 2026-04-28 20:40 | 42.59465 | 6.72562 | 23025 ft | 460 kts | 116° |
| 2026-04-28 20:41 | 42.58178 | 6.76530 | 23028 ft | 460 kts | 116° |
| 2026-04-28 20:41 | 42.56893 | 6.80495 | 23029 ft | 459 kts | 116° |
| 2026-04-28 20:41 | 42.55607 | 6.84465 | 23033 ft | 459 kts | 116° |
| 2026-04-28 20:41 | 42.54323 | 6.88428 | 23036 ft | 459 kts | 116° |
| 2026-04-28 20:42 | 42.53033 | 6.92394 | 23034 ft | 459 kts | 116° |
| 2026-04-28 20:42 | 42.51742 | 6.96351 | 23036 ft | 459 kts | 116° |
| 2026-04-28 20:42 | 42.50451 | 7.00300 | 23035 ft | 459 kts | 116° |
| 2026-04-28 20:42 | 42.49158 | 7.04258 | 23034 ft | 459 kts | 116° |
| 2026-04-28 20:43 | 42.47867 | 7.08211 | 23041 ft | 459 kts | 116° |
| 2026-04-28 20:43 | 42.46577 | 7.12156 | 23036 ft | 458 kts | 116° |
| 2026-04-28 20:43 | 42.45303 | 7.16048 | 23037 ft | 458 kts | 116° |
| 2026-04-28 20:43 | 42.43993 | 7.20044 | 23034 ft | 458 kts | 116° |
| 2026-04-28 20:44 | 42.42716 | 7.23928 | 23036 ft | 458 kts | 116° |
| 2026-04-28 20:44 | 42.41420 | 7.27862 | 23038 ft | 458 kts | 116° |
| 2026-04-28 20:44 | 42.40122 | 7.31795 | 23033 ft | 458 kts | 116° |
| 2026-04-28 20:44 | 42.38822 | 7.35724 | 23034 ft | 456 kts | 116° |
| 2026-04-28 20:45 | 42.37556 | 7.39559 | 23036 ft | 436 kts | 116° |
| 2026-04-28 20:45 | 42.36320 | 7.43296 | 23038 ft | 435 kts | 116° |
| 2026-04-28 20:45 | 42.35080 | 7.47030 | 22616 ft | 438 kts | 116° |
| 2026-04-28 20:45 | 42.33822 | 7.50803 | 21659 ft | 442 kts | 116° |
| 2026-04-28 20:46 | 42.32558 | 7.54588 | 20819 ft | 441 kts | 116° |
| 2026-04-28 20:46 | 42.31304 | 7.58339 | 20111 ft | 437 kts | 116° |
| 2026-04-28 20:46 | 42.30062 | 7.62065 | 19448 ft | 432 kts | 116° |
| 2026-04-28 20:46 | 42.28829 | 7.65746 | 18802 ft | 428 kts | 116° |
| 2026-04-28 20:47 | 42.27599 | 7.69392 | 18165 ft | 425 kts | 116° |
| 2026-04-28 20:47 | 42.26373 | 7.73003 | 17479 ft | 421 kts | 116° |
| 2026-04-28 20:47 | 42.25155 | 7.76573 | 16843 ft | 417 kts | 116° |
| 2026-04-28 20:47 | 42.23947 | 7.80096 | 16296 ft | 411 kts | 116° |
| 2026-04-28 20:48 | 42.22723 | 7.83561 | 15720 ft | 406 kts | 121° |
| 2026-04-28 20:48 | 42.21029 | 7.86551 | 15155 ft | 399 kts | 136° |
| 2026-04-28 20:48 | 42.19054 | 7.89155 | 14558 ft | 396 kts | 137° |
| 2026-04-28 20:48 | 42.17110 | 7.91703 | 13987 ft | 393 kts | 137° |
| 2026-04-28 20:49 | 42.15134 | 7.94293 | 13354 ft | 390 kts | 137° |
| 2026-04-28 20:49 | 42.13228 | 7.96799 | 12706 ft | 386 kts | 137° |
| 2026-04-28 20:49 | 42.11315 | 7.99310 | 12093 ft | 382 kts | 137° |
| 2026-04-28 20:49 | 42.09415 | 8.01799 | 11452 ft | 379 kts | 137° |
| 2026-04-28 20:50 | 42.07528 | 8.04267 | 11104 ft | 378 kts | 137° |
| 2026-04-28 20:50 | 42.05643 | 8.06729 | 11000 ft | 378 kts | 137° |
| 2026-04-28 20:50 | 42.03751 | 8.09198 | 11027 ft | 378 kts | 137° |
| 2026-04-28 20:50 | 42.01859 | 8.11664 | 11026 ft | 378 kts | 137° |
| 2026-04-28 20:51 | 41.99967 | 8.14132 | 11005 ft | 378 kts | 137° |
| 2026-04-28 20:51 | 41.98093 | 8.16579 | 10580 ft | 374 kts | 137° |
| 2026-04-28 20:51 | 41.96235 | 8.19003 | 9952 ft | 370 kts | 137° |
| 2026-04-28 20:51 | 41.94393 | 8.21402 | 9394 ft | 363 kts | 137° |
| 2026-04-28 20:52 | 41.92631 | 8.23693 | 9241 ft | 339 kts | 138° |
| 2026-04-28 20:52 | 41.91018 | 8.25797 | 9096 ft | 309 kts | 138° |
| 2026-04-28 20:52 | 41.89536 | 8.27728 | 8862 ft | 287 kts | 138° |
| 2026-04-28 20:52 | 41.88120 | 8.29564 | 8297 ft | 280 kts | 138° |
| 2026-04-28 20:53 | 41.85340 | 8.33158 | 7321 ft | 275 kts | 138° |
| 2026-04-28 20:53 | 41.83971 | 8.34927 | 6953 ft | 271 kts | 138° |
| 2026-04-28 20:53 | 41.82638 | 8.36649 | 6580 ft | 269 kts | 139° |
| 2026-04-28 20:54 | 41.81298 | 8.38379 | 6185 ft | 266 kts | 138° |
| 2026-04-28 20:54 | 41.79971 | 8.40094 | 5756 ft | 264 kts | 138° |
| 2026-04-28 20:54 | 41.78650 | 8.41802 | 5311 ft | 263 kts | 137° |
| 2026-04-28 20:54 | 41.77334 | 8.43501 | 4878 ft | 261 kts | 137° |
| 2026-04-28 20:55 | 41.76030 | 8.45185 | 4439 ft | 260 kts | 137° |
| 2026-04-28 20:55 | 41.74733 | 8.46861 | 4005 ft | 258 kts | 136° |
| 2026-04-28 20:55 | 41.73445 | 8.48524 | 3568 ft | 257 kts | 136° |
| 2026-04-28 20:55 | 41.72162 | 8.50176 | 3137 ft | 255 kts | 136° |
| 2026-04-28 20:56 | 41.70889 | 8.51812 | 2992 ft | 255 kts | 136° |
| 2026-04-28 20:56 | 41.69606 | 8.53461 | 2996 ft | 255 kts | 136° |
| 2026-04-28 20:56 | 41.68380 | 8.55181 | 3000 ft | 256 kts | 126° |
| 2026-04-28 20:56 | 41.67561 | 8.57234 | 2995 ft | 243 kts | 109° |
| 2026-04-28 20:57 | 41.67250 | 8.59364 | 2997 ft | 225 kts | 93° |
| 2026-04-28 20:57 | 41.67371 | 8.61338 | 3001 ft | 210 kts | 78° |
| 2026-04-28 20:57 | 41.67841 | 8.63126 | 3030 ft | 193 kts | 65° |
| 2026-04-28 20:57 | 41.68542 | 8.64580 | 3022 ft | 187 kts | 53° |
| 2026-04-28 20:58 | 41.69482 | 8.65813 | 2998 ft | 190 kts | 40° |
| 2026-04-28 20:58 | 41.70603 | 8.66720 | 2998 ft | 192 kts | 27° |
| 2026-04-28 20:58 | 41.71816 | 8.67466 | 2998 ft | 192 kts | 27° |
| 2026-04-28 20:58 | 41.73031 | 8.68218 | 3004 ft | 192 kts | 27° |
| 2026-04-28 20:59 | 41.74236 | 8.68965 | 3006 ft | 192 kts | 27° |
| 2026-04-28 20:59 | 41.75463 | 8.69725 | 3005 ft | 191 kts | 27° |
| 2026-04-28 20:59 | 41.76656 | 8.70464 | 2995 ft | 192 kts | 27° |
| 2026-04-28 20:59 | 41.77867 | 8.71215 | 2852 ft | 191 kts | 27° |
| 2026-04-28 21:00 | 41.79062 | 8.71956 | 2635 ft | 189 kts | 27° |
| 2026-04-28 21:00 | 41.80249 | 8.72693 | 2402 ft | 187 kts | 26° |
| 2026-04-28 21:00 | 41.81425 | 8.73422 | 2152 ft | 186 kts | 26° |
| 2026-04-28 21:00 | 41.82594 | 8.74148 | 1912 ft | 185 kts | 26° |
| 2026-04-28 21:01 | 41.83745 | 8.74863 | 1666 ft | 175 kts | 26° |
| 2026-04-28 21:01 | 41.84806 | 8.75522 | 1455 ft | 159 kts | 26° |
| 2026-04-28 21:01 | 41.85754 | 8.76111 | 1253 ft | 141 kts | 26° |
| 2026-04-28 21:01 | 41.86638 | 8.76661 | 1059 ft | 142 kts | 26° |
| 2026-04-28 21:02 | 41.87505 | 8.77187 | 826 ft | 133 kts | 25° |
| 2026-04-28 21:02 | 41.88432 | 8.77737 | 721 ft | 153 kts | 25° |
| 2026-04-28 21:02 | 41.89398 | 8.78341 | 574 ft | 156 kts | 28° |
| 2026-04-28 21:02 | 41.90413 | 8.78990 | 240 ft | 165 kts | 26° |
| 2026-04-28 21:03 | 41.91427 | 8.79635 | 36 ft | 157 kts | 26° |
| 2026-04-28 21:03 | 41.92320 | 8.80198 | 26 ft | 116 kts | 26° |
| 2026-04-28 21:03 | 41.92619 | 8.80385 | 27 ft | 25 kts | 26° |
| 2026-04-28 21:03 | 41.92762 | 8.80453 | 27 ft | 8 kts | 336° |
| 2026-04-28 21:04 | 41.92767 | 8.80440 | 27 ft | 1 kts | 293° |
| 2026-04-28 21:04 | 41.92774 | 8.80417 | 27 ft | 7 kts | 293° |
| 2026-04-28 21:04 | 41.92808 | 8.80321 | 26 ft | 16 kts | 295° |
| 2026-04-28 21:04 | 41.92797 | 8.80187 | 30 ft | 17 kts | 221° |
| 2026-04-28 21:05 | 41.92686 | 8.80096 | 27 ft | 21 kts | 204° |
| 2026-04-28 21:05 | 41.92543 | 8.80009 | 28 ft | 24 kts | 205° |
| 2026-04-28 21:05 | 41.92406 | 8.79923 | 27 ft | 23 kts | 205° |
| 2026-04-28 21:05 | 41.92248 | 8.79822 | 27 ft | 27 kts | 205° |
| 2026-04-28 21:06 | 41.92068 | 8.79712 | 27 ft | 30 kts | 205° |
| 2026-04-28 21:06 | 41.91919 | 8.79618 | 26 ft | 22 kts | 205° |
| 2026-04-28 21:06 | 41.91793 | 8.79540 | 27 ft | 16 kts | 205° |
| 2026-04-28 21:06 | 41.91781 | 8.79491 | 28 ft | 4 kts | 292° |
| 2026-04-28 21:07 | 41.91798 | 8.79475 | 26 ft | 2 kts | 332° |
| 2026-04-28 21:07 | 41.91809 | 8.79471 | 25 ft | 0 kts | 345° |